sensor_id;sensor_type;location;lat;lon;timestamp;P1;durP1;ratioP1;P2;durP2;ratioP2
71253;SDS011;59019;47.638;18.966;2024-03-08T00:00:15;25.38;;;15.90;;
71253;SDS011;59019;47.638;18.966;2024-03-08T00:02:46;25.20;;;15.88;;
71253;SDS011;59019;47.638;18.966;2024-03-08T00:05:16;23.50;;;14.47;;
71253;SDS011;59019;47.638;18.966;2024-03-08T00:07:43;22.90;;;13.60;;
71253;SDS011;59019;47.638;18.966;2024-03-08T00:10:11;21.90;;;12.73;;
71253;SDS011;59019;47.638;18.966;2024-03-08T00:12:42;28.27;;;17.98;;
71253;SDS011;59019;47.638;18.966;2024-03-08T00:15:16;39.63;;;29.25;;
71253;SDS011;59019;47.638;18.966;2024-03-08T00:17:43;23.15;;;14.60;;
71253;SDS011;59019;47.638;18.966;2024-03-08T00:20:10;22.98;;;13.27;;
71253;SDS011;59019;47.638;18.966;2024-03-08T00:22:38;20.42;;;12.50;;
71253;SDS011;59019;47.638;18.966;2024-03-08T00:25:04;20.05;;;11.90;;
71253;SDS011;59019;47.638;18.966;2024-03-08T00:27:34;20.48;;;12.48;;
71253;SDS011;59019;47.638;18.966;2024-03-08T00:30:00;21.48;;;13.30;;
71253;SDS011;59019;47.638;18.966;2024-03-08T00:32:26;22.30;;;13.65;;
71253;SDS011;59019;47.638;18.966;2024-03-08T00:34:57;23.58;;;13.40;;
71253;SDS011;59019;47.638;18.966;2024-03-08T00:37:27;21.77;;;13.00;;
71253;SDS011;59019;47.638;18.966;2024-03-08T00:39:54;22.33;;;13.43;;
71253;SDS011;59019;47.638;18.966;2024-03-08T00:42:21;22.40;;;13.57;;
71253;SDS011;59019;47.638;18.966;2024-03-08T00:44:47;22.53;;;13.27;;
71253;SDS011;59019;47.638;18.966;2024-03-08T00:47:16;22.25;;;14.05;;
71253;SDS011;59019;47.638;18.966;2024-03-08T00:49:42;23.88;;;13.85;;
71253;SDS011;59019;47.638;18.966;2024-03-08T00:52:09;23.45;;;13.60;;
71253;SDS011;59019;47.638;18.966;2024-03-08T00:54:35;22.38;;;13.23;;
71253;SDS011;59019;47.638;18.966;2024-03-08T00:57:02;23.60;;;13.68;;
71253;SDS011;59019;47.638;18.966;2024-03-08T00:59:29;48.27;;;30.07;;
71253;SDS011;59019;47.638;18.966;2024-03-08T01:01:58;28.00;;;16.60;;
71253;SDS011;59019;47.638;18.966;2024-03-08T01:04:28;26.35;;;15.93;;
71253;SDS011;59019;47.638;18.966;2024-03-08T01:06:55;40.03;;;24.83;;
71253;SDS011;59019;47.638;18.966;2024-03-08T01:09:22;28.75;;;17.45;;
71253;SDS011;59019;47.638;18.966;2024-03-08T01:11:53;25.45;;;15.25;;
71253;SDS011;59019;47.638;18.966;2024-03-08T01:14:23;26.10;;;16.38;;
71253;SDS011;59019;47.638;18.966;2024-03-08T01:16:54;29.20;;;17.27;;
71253;SDS011;59019;47.638;18.966;2024-03-08T01:19:20;25.65;;;15.30;;
71253;SDS011;59019;47.638;18.966;2024-03-08T01:21:46;24.88;;;15.43;;
71253;SDS011;59019;47.638;18.966;2024-03-08T01:24:13;24.65;;;14.48;;
71253;SDS011;59019;47.638;18.966;2024-03-08T01:26:39;23.48;;;13.82;;
71253;SDS011;59019;47.638;18.966;2024-03-08T01:29:06;25.17;;;13.70;;
71253;SDS011;59019;47.638;18.966;2024-03-08T01:31:33;23.70;;;13.90;;
71253;SDS011;59019;47.638;18.966;2024-03-08T01:33:59;22.88;;;13.63;;
71253;SDS011;59019;47.638;18.966;2024-03-08T01:36:25;23.47;;;14.10;;
71253;SDS011;59019;47.638;18.966;2024-03-08T01:38:51;24.30;;;13.98;;
71253;SDS011;59019;47.638;18.966;2024-03-08T01:41:18;24.92;;;14.60;;
71253;SDS011;59019;47.638;18.966;2024-03-08T01:43:45;25.42;;;14.52;;
71253;SDS011;59019;47.638;18.966;2024-03-08T01:46:12;23.10;;;13.65;;
71253;SDS011;59019;47.638;18.966;2024-03-08T01:48:42;24.58;;;14.05;;
71253;SDS011;59019;47.638;18.966;2024-03-08T01:51:08;25.90;;;14.70;;
71253;SDS011;59019;47.638;18.966;2024-03-08T01:53:37;23.55;;;14.23;;
71253;SDS011;59019;47.638;18.966;2024-03-08T01:56:04;25.48;;;14.50;;
71253;SDS011;59019;47.638;18.966;2024-03-08T01:58:32;23.90;;;14.00;;
71253;SDS011;59019;47.638;18.966;2024-03-08T02:00:59;23.65;;;14.07;;
71253;SDS011;59019;47.638;18.966;2024-03-08T02:03:25;25.02;;;14.70;;
71253;SDS011;59019;47.638;18.966;2024-03-08T02:05:51;24.10;;;14.37;;
71253;SDS011;59019;47.638;18.966;2024-03-08T02:08:18;22.73;;;13.90;;
71253;SDS011;59019;47.638;18.966;2024-03-08T02:10:48;24.60;;;14.10;;
71253;SDS011;59019;47.638;18.966;2024-03-08T02:13:14;25.50;;;14.10;;
71253;SDS011;59019;47.638;18.966;2024-03-08T02:15:50;24.33;;;13.82;;
71253;SDS011;59019;47.638;18.966;2024-03-08T02:18:19;23.48;;;14.15;;
71253;SDS011;59019;47.638;18.966;2024-03-08T02:20:46;24.80;;;14.40;;
71253;SDS011;59019;47.638;18.966;2024-03-08T02:23:16;26.23;;;14.43;;
71253;SDS011;59019;47.638;18.966;2024-03-08T02:25:47;25.05;;;14.73;;
71253;SDS011;59019;47.638;18.966;2024-03-08T02:28:14;24.45;;;14.13;;
71253;SDS011;59019;47.638;18.966;2024-03-08T02:30:41;25.02;;;14.48;;
71253;SDS011;59019;47.638;18.966;2024-03-08T02:33:07;25.83;;;14.77;;
71253;SDS011;59019;47.638;18.966;2024-03-08T02:35:36;23.67;;;14.40;;
71253;SDS011;59019;47.638;18.966;2024-03-08T02:38:03;26.23;;;14.38;;
71253;SDS011;59019;47.638;18.966;2024-03-08T02:40:29;28.13;;;14.77;;
71253;SDS011;59019;47.638;18.966;2024-03-08T02:42:55;28.60;;;15.90;;
71253;SDS011;59019;47.638;18.966;2024-03-08T02:45:22;26.80;;;15.63;;
71253;SDS011;59019;47.638;18.966;2024-03-08T02:47:48;27.98;;;15.88;;
71253;SDS011;59019;47.638;18.966;2024-03-08T02:50:15;27.80;;;15.63;;
71253;SDS011;59019;47.638;18.966;2024-03-08T02:52:42;27.93;;;15.50;;
71253;SDS011;59019;47.638;18.966;2024-03-08T02:55:09;28.77;;;15.50;;
71253;SDS011;59019;47.638;18.966;2024-03-08T02:57:36;27.85;;;15.73;;
71253;SDS011;59019;47.638;18.966;2024-03-08T03:00:02;29.23;;;17.00;;
71253;SDS011;59019;47.638;18.966;2024-03-08T03:02:29;26.88;;;15.68;;
71253;SDS011;59019;47.638;18.966;2024-03-08T03:04:56;29.45;;;15.95;;
71253;SDS011;59019;47.638;18.966;2024-03-08T03:07:22;31.02;;;16.38;;
71253;SDS011;59019;47.638;18.966;2024-03-08T03:09:48;28.03;;;16.00;;
71253;SDS011;59019;47.638;18.966;2024-03-08T03:12:16;33.10;;;17.77;;
71253;SDS011;59019;47.638;18.966;2024-03-08T03:14:43;31.23;;;16.37;;
71253;SDS011;59019;47.638;18.966;2024-03-08T03:17:10;30.10;;;16.95;;
71253;SDS011;59019;47.638;18.966;2024-03-08T03:19:36;30.70;;;16.77;;
71253;SDS011;59019;47.638;18.966;2024-03-08T03:22:03;31.67;;;17.40;;
71253;SDS011;59019;47.638;18.966;2024-03-08T03:24:32;30.10;;;16.27;;
71253;SDS011;59019;47.638;18.966;2024-03-08T03:26:58;30.80;;;16.30;;
71253;SDS011;59019;47.638;18.966;2024-03-08T03:29:25;30.88;;;16.42;;
71253;SDS011;59019;47.638;18.966;2024-03-08T03:31:51;32.67;;;17.55;;
71253;SDS011;59019;47.638;18.966;2024-03-08T03:34:18;31.13;;;16.90;;
71253;SDS011;59019;47.638;18.966;2024-03-08T03:36:44;29.83;;;16.65;;
71253;SDS011;59019;47.638;18.966;2024-03-08T03:39:12;30.63;;;16.58;;
71253;SDS011;59019;47.638;18.966;2024-03-08T03:41:41;30.10;;;16.27;;
71253;SDS011;59019;47.638;18.966;2024-03-08T03:44:11;29.48;;;15.93;;
71253;SDS011;59019;47.638;18.966;2024-03-08T03:46:37;29.70;;;16.17;;
71253;SDS011;59019;47.638;18.966;2024-03-08T03:49:09;31.10;;;16.37;;
71253;SDS011;59019;47.638;18.966;2024-03-08T03:51:36;30.50;;;16.52;;
71253;SDS011;59019;47.638;18.966;2024-03-08T03:54:02;31.95;;;16.92;;
71253;SDS011;59019;47.638;18.966;2024-03-08T03:56:32;32.65;;;17.55;;
71253;SDS011;59019;47.638;18.966;2024-03-08T03:58:58;30.63;;;17.25;;
71253;SDS011;59019;47.638;18.966;2024-03-08T04:01:25;32.92;;;17.55;;
71253;SDS011;59019;47.638;18.966;2024-03-08T04:03:52;32.33;;;18.07;;
71253;SDS011;59019;47.638;18.966;2024-03-08T04:06:18;33.17;;;17.20;;
71253;SDS011;59019;47.638;18.966;2024-03-08T04:08:45;34.13;;;18.55;;
71253;SDS011;59019;47.638;18.966;2024-03-08T04:11:14;35.78;;;18.65;;
71253;SDS011;59019;47.638;18.966;2024-03-08T04:13:43;34.33;;;18.17;;
71253;SDS011;59019;47.638;18.966;2024-03-08T04:16:10;35.85;;;18.20;;
71253;SDS011;59019;47.638;18.966;2024-03-08T04:18:37;35.63;;;18.95;;
71253;SDS011;59019;47.638;18.966;2024-03-08T04:21:04;34.20;;;18.65;;
71253;SDS011;59019;47.638;18.966;2024-03-08T04:23:32;35.95;;;18.98;;
71253;SDS011;59019;47.638;18.966;2024-03-08T04:26:03;37.03;;;19.20;;
71253;SDS011;59019;47.638;18.966;2024-03-08T04:28:31;33.40;;;17.63;;
71253;SDS011;59019;47.638;18.966;2024-03-08T04:30:57;34.17;;;18.60;;
71253;SDS011;59019;47.638;18.966;2024-03-08T04:33:26;38.83;;;19.40;;
71253;SDS011;59019;47.638;18.966;2024-03-08T04:35:53;40.13;;;19.30;;
71253;SDS011;59019;47.638;18.966;2024-03-08T04:38:20;36.30;;;18.53;;
71253;SDS011;59019;47.638;18.966;2024-03-08T04:40:46;34.10;;;18.23;;
71253;SDS011;59019;47.638;18.966;2024-03-08T04:43:13;41.47;;;20.00;;
71253;SDS011;59019;47.638;18.966;2024-03-08T04:45:40;38.25;;;19.25;;
71253;SDS011;59019;47.638;18.966;2024-03-08T04:48:09;37.70;;;19.33;;
71253;SDS011;59019;47.638;18.966;2024-03-08T04:50:37;43.30;;;20.70;;
71253;SDS011;59019;47.638;18.966;2024-03-08T04:53:03;42.35;;;21.35;;
71253;SDS011;59019;47.638;18.966;2024-03-08T04:55:33;41.63;;;21.70;;
71253;SDS011;59019;47.638;18.966;2024-03-08T04:58:00;39.42;;;20.45;;
71253;SDS011;59019;47.638;18.966;2024-03-08T05:00:26;39.17;;;20.10;;
71253;SDS011;59019;47.638;18.966;2024-03-08T05:02:52;43.22;;;20.83;;
71253;SDS011;59019;47.638;18.966;2024-03-08T05:05:19;45.15;;;21.70;;
71253;SDS011;59019;47.638;18.966;2024-03-08T05:07:46;44.22;;;21.70;;
71253;SDS011;59019;47.638;18.966;2024-03-08T05:10:13;47.17;;;23.03;;
71253;SDS011;59019;47.638;18.966;2024-03-08T05:12:43;47.33;;;23.23;;
71253;SDS011;59019;47.638;18.966;2024-03-08T05:15:10;46.72;;;22.45;;
71253;SDS011;59019;47.638;18.966;2024-03-08T05:17:36;49.17;;;23.87;;
71253;SDS011;59019;47.638;18.966;2024-03-08T05:20:02;54.90;;;25.67;;
71253;SDS011;59019;47.638;18.966;2024-03-08T05:22:29;48.50;;;24.73;;
71253;SDS011;59019;47.638;18.966;2024-03-08T05:24:55;49.55;;;23.63;;
71253;SDS011;59019;47.638;18.966;2024-03-08T05:27:21;45.37;;;22.47;;
71253;SDS011;59019;47.638;18.966;2024-03-08T05:29:47;51.70;;;24.10;;
71253;SDS011;59019;47.638;18.966;2024-03-08T05:32:14;50.35;;;25.33;;
71253;SDS011;59019;47.638;18.966;2024-03-08T05:34:40;45.00;;;23.00;;
71253;SDS011;59019;47.638;18.966;2024-03-08T05:37:06;49.00;;;23.38;;
71253;SDS011;59019;47.638;18.966;2024-03-08T05:39:33;48.30;;;24.17;;
71253;SDS011;59019;47.638;18.966;2024-03-08T05:41:59;48.90;;;24.15;;
71253;SDS011;59019;47.638;18.966;2024-03-08T05:44:25;46.80;;;22.45;;
71253;SDS011;59019;47.638;18.966;2024-03-08T05:46:54;47.97;;;23.30;;
71253;SDS011;59019;47.638;18.966;2024-03-08T05:49:21;43.95;;;21.75;;
71253;SDS011;59019;47.638;18.966;2024-03-08T05:51:47;44.45;;;21.67;;
71253;SDS011;59019;47.638;18.966;2024-03-08T05:54:13;44.15;;;21.33;;
71253;SDS011;59019;47.638;18.966;2024-03-08T05:56:40;43.65;;;21.33;;
71253;SDS011;59019;47.638;18.966;2024-03-08T05:59:10;43.80;;;20.97;;
71253;SDS011;59019;47.638;18.966;2024-03-08T06:01:37;41.75;;;20.75;;
71253;SDS011;59019;47.638;18.966;2024-03-08T06:04:03;43.03;;;21.02;;
71253;SDS011;59019;47.638;18.966;2024-03-08T06:06:30;43.40;;;21.52;;
71253;SDS011;59019;47.638;18.966;2024-03-08T06:08:56;43.42;;;21.35;;
71253;SDS011;59019;47.638;18.966;2024-03-08T06:11:23;43.97;;;21.77;;
71253;SDS011;59019;47.638;18.966;2024-03-08T06:13:52;44.85;;;21.73;;
71253;SDS011;59019;47.638;18.966;2024-03-08T06:16:27;43.87;;;21.33;;
71253;SDS011;59019;47.638;18.966;2024-03-08T06:18:57;46.60;;;22.03;;
71253;SDS011;59019;47.638;18.966;2024-03-08T06:21:23;46.10;;;22.25;;
71253;SDS011;59019;47.638;18.966;2024-03-08T06:23:54;43.08;;;21.20;;
71253;SDS011;59019;47.638;18.966;2024-03-08T06:26:21;43.67;;;21.10;;
71253;SDS011;59019;47.638;18.966;2024-03-08T06:28:47;45.03;;;21.63;;
71253;SDS011;59019;47.638;18.966;2024-03-08T06:31:14;45.50;;;22.52;;
71253;SDS011;59019;47.638;18.966;2024-03-08T06:33:40;49.38;;;23.80;;
71253;SDS011;59019;47.638;18.966;2024-03-08T06:36:08;56.50;;;26.13;;
71253;SDS011;59019;47.638;18.966;2024-03-08T06:38:37;49.37;;;24.03;;
71253;SDS011;59019;47.638;18.966;2024-03-08T06:41:08;48.78;;;23.27;;
71253;SDS011;59019;47.638;18.966;2024-03-08T06:43:40;49.20;;;22.52;;
71253;SDS011;59019;47.638;18.966;2024-03-08T06:46:26;47.85;;;23.15;;
71253;SDS011;59019;47.638;18.966;2024-03-08T06:48:53;47.22;;;23.75;;
71253;SDS011;59019;47.638;18.966;2024-03-08T06:51:20;44.63;;;22.38;;
71253;SDS011;59019;47.638;18.966;2024-03-08T06:53:46;49.38;;;22.55;;
71253;SDS011;59019;47.638;18.966;2024-03-08T06:56:11;47.67;;;23.90;;
71253;SDS011;59019;47.638;18.966;2024-03-08T06:58:38;46.47;;;22.95;;
71253;SDS011;59019;47.638;18.966;2024-03-08T07:01:05;51.25;;;23.45;;
71253;SDS011;59019;47.638;18.966;2024-03-08T07:03:35;50.30;;;23.50;;
71253;SDS011;59019;47.638;18.966;2024-03-08T07:06:19;51.33;;;24.25;;
71253;SDS011;59019;47.638;18.966;2024-03-08T07:08:45;48.55;;;24.67;;
71253;SDS011;59019;47.638;18.966;2024-03-08T07:11:11;51.38;;;24.52;;
71253;SDS011;59019;47.638;18.966;2024-03-08T07:13:41;49.05;;;23.65;;
71253;SDS011;59019;47.638;18.966;2024-03-08T07:16:07;48.87;;;23.77;;
71253;SDS011;59019;47.638;18.966;2024-03-08T07:18:33;47.78;;;23.10;;
71253;SDS011;59019;47.638;18.966;2024-03-08T07:21:01;48.83;;;23.70;;
71253;SDS011;59019;47.638;18.966;2024-03-08T07:23:29;45.35;;;23.23;;
71253;SDS011;59019;47.638;18.966;2024-03-08T07:26:16;48.65;;;22.85;;
71253;SDS011;59019;47.638;18.966;2024-03-08T07:28:44;48.10;;;22.88;;
71253;SDS011;59019;47.638;18.966;2024-03-08T07:31:10;49.67;;;24.15;;
71253;SDS011;59019;47.638;18.966;2024-03-08T07:33:54;49.83;;;23.67;;
71253;SDS011;59019;47.638;18.966;2024-03-08T07:36:21;47.33;;;23.47;;
71253;SDS011;59019;47.638;18.966;2024-03-08T07:38:50;51.03;;;24.05;;
71253;SDS011;59019;47.638;18.966;2024-03-08T07:41:16;51.47;;;24.90;;
71253;SDS011;59019;47.638;18.966;2024-03-08T07:43:42;48.85;;;24.58;;
71253;SDS011;59019;47.638;18.966;2024-03-08T07:46:11;50.15;;;24.38;;
71253;SDS011;59019;47.638;18.966;2024-03-08T07:48:38;52.73;;;26.10;;
71253;SDS011;59019;47.638;18.966;2024-03-08T07:51:05;51.40;;;25.85;;
71253;SDS011;59019;47.638;18.966;2024-03-08T07:53:31;52.93;;;24.70;;
71253;SDS011;59019;47.638;18.966;2024-03-08T07:55:59;51.57;;;25.40;;
71253;SDS011;59019;47.638;18.966;2024-03-08T07:58:26;48.30;;;24.35;;
71253;SDS011;59019;47.638;18.966;2024-03-08T08:00:53;50.92;;;25.70;;
71253;SDS011;59019;47.638;18.966;2024-03-08T08:03:20;49.65;;;24.48;;
71253;SDS011;59019;47.638;18.966;2024-03-08T08:05:46;48.10;;;23.92;;
71253;SDS011;59019;47.638;18.966;2024-03-08T08:08:14;47.35;;;23.25;;
71253;SDS011;59019;47.638;18.966;2024-03-08T08:10:40;48.97;;;23.95;;
71253;SDS011;59019;47.638;18.966;2024-03-08T08:13:06;51.40;;;25.00;;
71253;SDS011;59019;47.638;18.966;2024-03-08T08:15:36;51.22;;;24.00;;
71253;SDS011;59019;47.638;18.966;2024-03-08T08:18:04;47.80;;;23.73;;
71253;SDS011;59019;47.638;18.966;2024-03-08T08:20:31;47.60;;;23.45;;
71253;SDS011;59019;47.638;18.966;2024-03-08T08:22:57;48.70;;;23.88;;
71253;SDS011;59019;47.638;18.966;2024-03-08T08:25:24;50.88;;;24.52;;
71253;SDS011;59019;47.638;18.966;2024-03-08T08:27:51;52.47;;;24.77;;
71253;SDS011;59019;47.638;18.966;2024-03-08T08:30:18;47.25;;;23.90;;
71253;SDS011;59019;47.638;18.966;2024-03-08T08:32:44;48.05;;;24.23;;
71253;SDS011;59019;47.638;18.966;2024-03-08T08:35:12;48.37;;;23.50;;
71253;SDS011;59019;47.638;18.966;2024-03-08T08:37:38;48.07;;;23.80;;
71253;SDS011;59019;47.638;18.966;2024-03-08T08:40:05;48.70;;;24.23;;
71253;SDS011;59019;47.638;18.966;2024-03-08T08:42:40;53.53;;;25.65;;
71253;SDS011;59019;47.638;18.966;2024-03-08T08:45:06;49.38;;;24.58;;
71253;SDS011;59019;47.638;18.966;2024-03-08T08:47:35;52.55;;;25.20;;
71253;SDS011;59019;47.638;18.966;2024-03-08T08:50:01;53.50;;;25.95;;
71253;SDS011;59019;47.638;18.966;2024-03-08T08:52:30;50.92;;;25.77;;
71253;SDS011;59019;47.638;18.966;2024-03-08T08:54:57;51.72;;;25.75;;
71253;SDS011;59019;47.638;18.966;2024-03-08T08:57:23;50.72;;;25.17;;
71253;SDS011;59019;47.638;18.966;2024-03-08T08:59:50;47.35;;;24.00;;
71253;SDS011;59019;47.638;18.966;2024-03-08T09:02:16;47.15;;;24.13;;
71253;SDS011;59019;47.638;18.966;2024-03-08T09:04:46;49.70;;;24.17;;
71253;SDS011;59019;47.638;18.966;2024-03-08T09:07:13;49.13;;;24.40;;
71253;SDS011;59019;47.638;18.966;2024-03-08T09:09:44;47.90;;;23.40;;
71253;SDS011;59019;47.638;18.966;2024-03-08T09:12:10;49.70;;;24.02;;
71253;SDS011;59019;47.638;18.966;2024-03-08T09:14:39;48.63;;;23.08;;
71253;SDS011;59019;47.638;18.966;2024-03-08T09:17:06;53.22;;;25.30;;
71253;SDS011;59019;47.638;18.966;2024-03-08T09:19:34;51.35;;;24.83;;
71253;SDS011;59019;47.638;18.966;2024-03-08T09:22:00;51.78;;;25.17;;
71253;SDS011;59019;47.638;18.966;2024-03-08T09:24:29;50.15;;;25.20;;
71253;SDS011;59019;47.638;18.966;2024-03-08T09:26:56;51.40;;;24.02;;
71253;SDS011;59019;47.638;18.966;2024-03-08T09:29:24;53.75;;;25.17;;
71253;SDS011;59019;47.638;18.966;2024-03-08T09:31:50;50.55;;;24.13;;
71253;SDS011;59019;47.638;18.966;2024-03-08T09:34:17;49.73;;;24.60;;
71253;SDS011;59019;47.638;18.966;2024-03-08T09:36:44;48.97;;;24.77;;
71253;SDS011;59019;47.638;18.966;2024-03-08T09:39:10;48.42;;;24.48;;
71253;SDS011;59019;47.638;18.966;2024-03-08T09:41:45;49.85;;;24.15;;
71253;SDS011;59019;47.638;18.966;2024-03-08T09:44:15;46.25;;;24.23;;
71253;SDS011;59019;47.638;18.966;2024-03-08T09:46:44;53.10;;;26.88;;
71253;SDS011;59019;47.638;18.966;2024-03-08T09:49:30;49.73;;;25.37;;
71253;SDS011;59019;47.638;18.966;2024-03-08T09:52:04;54.45;;;26.17;;
71253;SDS011;59019;47.638;18.966;2024-03-08T09:54:31;47.45;;;24.42;;
71253;SDS011;59019;47.638;18.966;2024-03-08T09:56:58;51.55;;;24.92;;
71253;SDS011;59019;47.638;18.966;2024-03-08T09:59:24;49.55;;;23.85;;
71253;SDS011;59019;47.638;18.966;2024-03-08T10:01:53;49.15;;;23.90;;
71253;SDS011;59019;47.638;18.966;2024-03-08T10:04:24;48.65;;;23.85;;
71253;SDS011;59019;47.638;18.966;2024-03-08T10:06:53;49.80;;;23.50;;
71253;SDS011;59019;47.638;18.966;2024-03-08T10:09:22;49.70;;;23.70;;
71253;SDS011;59019;47.638;18.966;2024-03-08T10:11:50;45.27;;;22.53;;
71253;SDS011;59019;47.638;18.966;2024-03-08T10:14:39;43.85;;;22.20;;
71253;SDS011;59019;47.638;18.966;2024-03-08T10:17:06;44.90;;;21.95;;
71253;SDS011;59019;47.638;18.966;2024-03-08T10:19:32;42.63;;;22.35;;
71253;SDS011;59019;47.638;18.966;2024-03-08T10:21:59;45.53;;;21.88;;
71253;SDS011;59019;47.638;18.966;2024-03-08T10:24:25;45.17;;;22.13;;
71253;SDS011;59019;47.638;18.966;2024-03-08T10:26:52;46.15;;;23.25;;
71253;SDS011;59019;47.638;18.966;2024-03-08T10:29:39;49.65;;;24.10;;
71253;SDS011;59019;47.638;18.966;2024-03-08T10:32:09;47.05;;;23.83;;
71253;SDS011;59019;47.638;18.966;2024-03-08T10:34:35;46.95;;;23.63;;
71253;SDS011;59019;47.638;18.966;2024-03-08T10:37:03;46.13;;;22.05;;
71253;SDS011;59019;47.638;18.966;2024-03-08T10:39:33;46.45;;;22.67;;
71253;SDS011;59019;47.638;18.966;2024-03-08T10:42:04;43.40;;;22.05;;
71253;SDS011;59019;47.638;18.966;2024-03-08T10:45:15;48.90;;;23.75;;
71253;SDS011;59019;47.638;18.966;2024-03-08T10:47:41;50.92;;;24.60;;
71253;SDS011;59019;47.638;18.966;2024-03-08T10:50:17;50.00;;;25.10;;
71253;SDS011;59019;47.638;18.966;2024-03-08T10:52:52;51.22;;;24.23;;
71253;SDS011;59019;47.638;18.966;2024-03-08T10:55:18;50.95;;;24.70;;
71253;SDS011;59019;47.638;18.966;2024-03-08T10:57:48;50.92;;;24.48;;
71253;SDS011;59019;47.638;18.966;2024-03-08T11:00:14;48.28;;;23.48;;
71253;SDS011;59019;47.638;18.966;2024-03-08T11:02:45;46.80;;;23.42;;
71253;SDS011;59019;47.638;18.966;2024-03-08T11:05:15;48.40;;;23.38;;
71253;SDS011;59019;47.638;18.966;2024-03-08T11:10:46;47.88;;;23.15;;
71253;SDS011;59019;47.638;18.966;2024-03-08T11:16:12;46.28;;;23.05;;
71253;SDS011;59019;47.638;18.966;2024-03-08T11:18:58;47.83;;;23.67;;
71253;SDS011;59019;47.638;18.966;2024-03-08T11:21:30;47.03;;;23.08;;
71253;SDS011;59019;47.638;18.966;2024-03-08T11:24:02;47.47;;;23.75;;
71253;SDS011;59019;47.638;18.966;2024-03-08T11:26:33;50.13;;;23.77;;
71253;SDS011;59019;47.638;18.966;2024-03-08T11:32:23;47.60;;;23.90;;
71253;SDS011;59019;47.638;18.966;2024-03-08T11:34:54;46.63;;;22.77;;
71253;SDS011;59019;47.638;18.966;2024-03-08T11:37:21;46.20;;;23.63;;
71253;SDS011;59019;47.638;18.966;2024-03-08T11:42:17;48.25;;;24.75;;
71253;SDS011;59019;47.638;18.966;2024-03-08T11:44:45;52.23;;;24.80;;
71253;SDS011;59019;47.638;18.966;2024-03-08T11:47:25;49.22;;;24.33;;
71253;SDS011;59019;47.638;18.966;2024-03-08T11:49:52;49.63;;;24.42;;
71253;SDS011;59019;47.638;18.966;2024-03-08T11:52:18;49.60;;;24.98;;
71253;SDS011;59019;47.638;18.966;2024-03-08T11:54:51;49.35;;;24.55;;
71253;SDS011;59019;47.638;18.966;2024-03-08T11:57:21;50.80;;;24.73;;
71253;SDS011;59019;47.638;18.966;2024-03-08T11:59:49;48.38;;;24.08;;
71253;SDS011;59019;47.638;18.966;2024-03-08T12:02:59;48.72;;;24.05;;
71253;SDS011;59019;47.638;18.966;2024-03-08T12:05:32;45.28;;;23.80;;
71253;SDS011;59019;47.638;18.966;2024-03-08T12:07:59;47.67;;;23.73;;
71253;SDS011;59019;47.638;18.966;2024-03-08T12:10:25;47.50;;;23.40;;
71253;SDS011;59019;47.638;18.966;2024-03-08T12:12:55;48.92;;;23.85;;
71253;SDS011;59019;47.638;18.966;2024-03-08T12:15:27;52.38;;;25.45;;
71253;SDS011;59019;47.638;18.966;2024-03-08T12:17:54;50.08;;;25.15;;
71253;SDS011;59019;47.638;18.966;2024-03-08T12:20:27;52.30;;;24.40;;
71253;SDS011;59019;47.638;18.966;2024-03-08T12:23:13;51.38;;;25.25;;
71253;SDS011;59019;47.638;18.966;2024-03-08T12:25:40;50.20;;;24.25;;
71253;SDS011;59019;47.638;18.966;2024-03-08T12:28:11;49.42;;;25.55;;
71253;SDS011;59019;47.638;18.966;2024-03-08T12:30:45;51.33;;;25.25;;
71253;SDS011;59019;47.638;18.966;2024-03-08T12:33:20;50.88;;;24.70;;
71253;SDS011;59019;47.638;18.966;2024-03-08T12:35:52;50.67;;;25.37;;
71253;SDS011;59019;47.638;18.966;2024-03-08T12:38:20;51.80;;;25.48;;
71253;SDS011;59019;47.638;18.966;2024-03-08T12:40:55;51.03;;;25.77;;
71253;SDS011;59019;47.638;18.966;2024-03-08T12:43:28;48.17;;;24.30;;
71253;SDS011;59019;47.638;18.966;2024-03-08T12:45:55;49.85;;;25.05;;
71253;SDS011;59019;47.638;18.966;2024-03-08T12:48:22;48.88;;;24.35;;
71253;SDS011;59019;47.638;18.966;2024-03-08T12:50:48;51.27;;;25.10;;
71253;SDS011;59019;47.638;18.966;2024-03-08T12:53:16;49.80;;;24.30;;
71253;SDS011;59019;47.638;18.966;2024-03-08T12:55:43;46.50;;;24.13;;
71253;SDS011;59019;47.638;18.966;2024-03-08T12:58:10;52.13;;;25.55;;
71253;SDS011;59019;47.638;18.966;2024-03-08T13:00:40;50.53;;;24.75;;
71253;SDS011;59019;47.638;18.966;2024-03-08T13:03:08;48.35;;;24.00;;
71253;SDS011;59019;47.638;18.966;2024-03-08T13:05:36;50.30;;;24.98;;
71253;SDS011;59019;47.638;18.966;2024-03-08T13:08:06;49.00;;;24.45;;
71253;SDS011;59019;47.638;18.966;2024-03-08T13:10:39;49.38;;;23.92;;
71253;SDS011;59019;47.638;18.966;2024-03-08T13:13:05;48.17;;;24.48;;
71253;SDS011;59019;47.638;18.966;2024-03-08T13:15:37;49.83;;;24.30;;
71253;SDS011;59019;47.638;18.966;2024-03-08T13:18:11;45.85;;;23.42;;
71253;SDS011;59019;47.638;18.966;2024-03-08T13:20:38;45.80;;;22.70;;
71253;SDS011;59019;47.638;18.966;2024-03-08T13:23:04;46.00;;;23.27;;
71253;SDS011;59019;47.638;18.966;2024-03-08T13:25:32;47.30;;;23.40;;
71253;SDS011;59019;47.638;18.966;2024-03-08T13:27:58;49.40;;;24.10;;
71253;SDS011;59019;47.638;18.966;2024-03-08T13:30:35;49.42;;;24.27;;
71253;SDS011;59019;47.638;18.966;2024-03-08T13:33:28;49.23;;;24.77;;
71253;SDS011;59019;47.638;18.966;2024-03-08T13:35:55;49.25;;;25.00;;
71253;SDS011;59019;47.638;18.966;2024-03-08T13:38:22;52.65;;;26.77;;
71253;SDS011;59019;47.638;18.966;2024-03-08T13:40:49;58.50;;;27.80;;
71253;SDS011;59019;47.638;18.966;2024-03-08T13:43:17;50.93;;;25.00;;
71253;SDS011;59019;47.638;18.966;2024-03-08T13:45:46;49.25;;;25.52;;
71253;SDS011;59019;47.638;18.966;2024-03-08T13:48:18;51.40;;;25.38;;
71253;SDS011;59019;47.638;18.966;2024-03-08T13:50:45;52.80;;;25.60;;
71253;SDS011;59019;47.638;18.966;2024-03-08T13:53:11;54.38;;;26.27;;
71253;SDS011;59019;47.638;18.966;2024-03-08T13:55:41;50.03;;;26.13;;
71253;SDS011;59019;47.638;18.966;2024-03-08T13:58:08;49.20;;;25.05;;
71253;SDS011;59019;47.638;18.966;2024-03-08T14:00:38;49.83;;;24.97;;
71253;SDS011;59019;47.638;18.966;2024-03-08T14:03:31;49.72;;;25.27;;
71253;SDS011;59019;47.638;18.966;2024-03-08T14:05:58;45.50;;;23.95;;
71253;SDS011;59019;47.638;18.966;2024-03-08T14:08:25;55.22;;;26.50;;
71253;SDS011;59019;47.638;18.966;2024-03-08T14:10:52;50.07;;;25.00;;
71253;SDS011;59019;47.638;18.966;2024-03-08T14:13:19;49.30;;;25.00;;
71253;SDS011;59019;47.638;18.966;2024-03-08T14:15:52;46.92;;;24.73;;
71253;SDS011;59019;47.638;18.966;2024-03-08T14:18:41;47.88;;;24.65;;
71253;SDS011;59019;47.638;18.966;2024-03-08T14:21:07;47.97;;;25.10;;
71253;SDS011;59019;47.638;18.966;2024-03-08T14:23:34;48.93;;;25.13;;
71253;SDS011;59019;47.638;18.966;2024-03-08T14:26:02;50.67;;;26.00;;
71253;SDS011;59019;47.638;18.966;2024-03-08T14:28:29;51.93;;;25.60;;